Airfield :







YOU CAN JOIN US ON...

 
LOGIN :

Register | Disclaimer

   EN    FR    IT 

 









Legend :    VFR   Marginal VFR   IFR   Intensive IFR   Very Intensive IFR
Visi :
Ceiling :
>= 8 km
>= 3000ft
5 to 8 km
1000 to 3000 ft
1500m to 5 km
500 to 1000 ft
800 to 1500m
200 to 500 ft
< 800m
< 200 ft
Symbols :   Thunderstorms  Fog  Heavy snow  Heavy precipitations  Wind > 20 kt






- Airport Elevation : 124 ft
- IATA code : YGV


CYGV - Havre St Pierre

CURRENT METAR :
  • 151117Z AUTO 08018G24KT 2 1/2SM -RA -UP BR OVC012 01/01 A2898 RMK SLP818

EXPIRED METARs :
  • 151108Z AUTO 07016G23KT 6SM -RA -UP BR OVC012 01/01 A2899 RMK SLP820
  • 151000Z AUTO 07017G27KT 5SM -RA BR OVC010 01/01 A2908 RMK SLP849
  • 150931Z AUTO 08016G26KT 5SM -RA BR OVC010 01/00 A2911 RMK SLP862
  • 150926Z AUTO 07018G27KT 6SM -RA BR OVC010 01/00 A2911 RMK SLP861
  • 150903Z AUTO 07018G30KT 6SM -RA BR OVC010 01/00 A2912 RMK PRESFR SLP863

TAF TAF CYGV
Valid from the 15 at 08:00 until the 15 at 20:00 UTC


150738Z 1508/1520 09025G35KT P6SM -RA OVC010
TEMPO 1508/1509 2SM -FZRA -SNRAPL BR
FM150900 09025G40KT 2SM -RA BR OVC003
TEMPO 1509/1518 6SM -RA BR OVC010
BECMG 1512/1514 16012G22KT
FM151800 20020G30KT P6SM OVC010
BECMG 1518/1520 25030G45KT 21/2SM -SNRA BR RMK FCST BASED ON AUTO OBS. NXT FCST BY 151400Z



MET'MAP, your aeronautical weather chart ! - Copyright ORBIFLY December 2007 - Disclaimer

ORBIFLY MET'MAP TEAM :

Programming & Development : Alexandra Zaïnal
Concept & original design : Baudouin d'Aumeries
Assistance for programming : Marc-Olivier Méhu
Technical & hardware support : Manuel Goepfert

Contact : metmap@orbifly.com




SOURCES & CREDITS :

   NOAA